Thunder radar more information blitzortung!


avis per Snow/Ice more information rain snow radar


Visita la nostra xarxa de llocs de meteo:

Template documentation
and downloads

And another site



Snow/Ice From: 26-02-2018 12:00 Until: 27-02-2018 05:59 warning for: Snow/Ice Level: Yellow info button

Pagina Historial Weather Underground text

Diari Resum Desembre 23, 2017 Unitats:  Imperial    Mètric   Tant
« Previous Dia
SegĂźent Dia »
Diari Setmana Mensual Anual Personalitzada
  Maxima: Minima: Media:
Temperatura: TemperatureC °F 2.2 °F 7.1 °F
Punt de rosada: DewpointC °F -1.2 °F 1.8 °F
Humitat: Humidity % 63 % 69 %
Wind Speed: WindSpeedKMH mph 0.0 mph 4 mph
RĂ fegues de vent: WindSpeedGustKMH mph - -
Vent:- - SSE
Pression baro: PressurehPa in 1030.7 in -
Precipitacions: 0.0 in    
Historical Graphs
 
 
Dades de taula per Desembre 23, 2017
Temps Temperatura Punt de rosada Pression baro Vent Wind Speed RĂ fegues de vent Humitat Rainfall Rate (Hourly)
TemperatureC °F DewpointC °F PressurehPa in Calm     Humidity % HourlyPrecipMM in
00:04 7.0 °F 0.7 °F 1032.1 in Calm     64 % 0.0 in
00:05 7.0 °F 0.7 °F 1032.1 in Calm     64 % 0.0 in
00:10 7.0 °F 0.7 °F 1032.1 in Calm     64 % 0.0 in
00:11 7.0 °F 0.7 °F 1032.1 in Calm     64 % 0.0 in
00:15 5.0 °F 0.6 °F 1032.1 in NE 8.0 mph 9.7 mph 73 % 0.0 in
00:25 4.9 °F 0.4 °F 1032.1 in NNE 1.6 mph 6.4 mph 73 % 0.0 in
00:35 4.6 °F 0.0 °F 1032.1 in WNW 3.2 mph 4.8 mph 72 % 0.0 in
00:45 4.4 °F 0.0 °F 1032.1 in WNW 3.2 mph 3.2 mph 73 % 0.0 in
00:55 4.3 °F -0.3 °F 1032.7 in NW 3.2 mph 3.2 mph 72 % 0.0 in
01:05 4.3 °F -0.1 °F 1032.1 in Calm   3.2 mph 73 % 0.0 in
01:15 4.3 °F 0.1 °F 1032.1 in NW 1.6 mph 3.2 mph 74 % 0.0 in
01:25 4.3 °F 0.1 °F 1032.7 in NNE 1.6 mph 3.2 mph 74 % 0.0 in
01:35 4.3 °F 0.1 °F 1032.7 in NNE 3.2 mph 4.8 mph 74 % 0.0 in
01:45 4.3 °F 0.1 °F 1032.7 in Calm   4.8 mph 74 % 0.0 in
01:55 4.2 °F 0.0 °F 1033.7 in Calm   4.8 mph 74 % 0.0 in
02:05 4.1 °F -0.1 °F 1033.7 in North 1.6 mph 3.2 mph 74 % 0.0 in
02:15 3.9 °F -0.3 °F 1033.7 in Calm   3.2 mph 74 % 0.0 in
02:25 3.7 °F -0.5 °F 1033.7 in West 1.6 mph 3.2 mph 74 % 0.0 in
02:35 3.9 °F -0.1 °F 1033.7 in NNW 1.6 mph 3.2 mph 75 % 0.0 in
02:45 4.1 °F 0.1 °F 1033.7 in NE 1.6 mph 1.6 mph 75 % 0.0 in
02:55 4.3 °F 0.3 °F 1034.8 in NNE 1.6 mph 4.8 mph 75 % 0.0 in
03:05 4.3 °F 0.3 °F 1033.7 in NNE 3.2 mph 4.8 mph 75 % 0.0 in
03:15 4.6 °F 0.6 °F 1033.7 in NNE 1.6 mph 3.2 mph 75 % 0.0 in
03:25 4.9 °F 0.8 °F 1033.7 in NNE 1.6 mph 3.2 mph 75 % 0.0 in
03:35 5.1 °F 0.8 °F 1033.7 in NE 4.8 mph 4.8 mph 74 % 0.0 in
03:45 5.4 °F 1.1 °F 1033.7 in NE 3.2 mph 4.8 mph 74 % 0.0 in
03:55 5.8 °F 1.5 °F 1033.7 in NNE 1.6 mph 4.8 mph 74 % 0.0 in
04:05 6.1 °F 1.8 °F 1034.8 in North 1.6 mph 3.2 mph 74 % 0.0 in
04:15 6.5 °F 2.0 °F 1034.8 in NE 1.6 mph 3.2 mph 73 % 0.0 in
04:25 6.7 °F 2.0 °F 1034.8 in NE 3.2 mph 4.8 mph 72 % 0.0 in
04:35 6.7 °F 2.0 °F 1034.8 in ENE 4.8 mph 6.4 mph 72 % 0.0 in
04:45 7.1 °F 2.4 °F 1034.8 in Calm   3.2 mph 72 % 0.0 in
04:55 7.4 °F 2.5 °F 1034.8 in NE 3.2 mph 4.8 mph 71 % 0.0 in
05:05 7.7 °F 2.6 °F 1034.8 in NNE 3.2 mph 4.8 mph 70 % 0.0 in
05:15 7.6 °F 2.5 °F 1034.8 in NNE 4.8 mph 6.4 mph 70 % 0.0 in
05:25 7.6 °F 2.3 °F 1034.8 in NNE 4.8 mph 8.0 mph 69 % 0.0 in
11:31 7.8 °F 2.4 °F 1034.8 in NNE 5.8 mph 5.8 mph 69 % 0.0 in
11:32 7.8 °F 2.4 °F 1034.8 in NE 5.6 mph 5.6 mph 69 % 0.0 in
11:33 7.8 °F 2.4 °F 1034.8 in ENE 7.4 mph 7.4 mph 69 % 0.0 in
11:38 7.9 °F 2.6 °F 1034.8 in NNE 7.4 mph 7.4 mph 69 % 0.0 in
11:39 7.9 °F 2.6 °F 1034.8 in NE 7.4 mph 7.4 mph 69 % 0.0 in
11:44 7.9 °F 2.3 °F 1034.8 in NE 9.3 mph 9.3 mph 68 % 0.0 in
11:49 7.9 °F 2.6 °F 1034.8 in NNE 7.4 mph 7.4 mph 69 % 0.0 in
11:50 7.8 °F 2.3 °F 1034.8 in NNE 9.0 mph 9.0 mph 68 % 0.0 in
11:51 7.8 °F 2.3 °F 1034.8 in NE 9.3 mph 9.3 mph 68 % 0.0 in
11:57 7.9 °F 2.3 °F 1034.8 in North 9.3 mph 9.3 mph 68 % 0.0 in
12:02 8.0 °F 2.4 °F 1034.8 in NNW 9.3 mph 9.3 mph 68 % 0.0 in
12:03 8.1 °F 2.6 °F 1034.8 in NE 5.6 mph 5.6 mph 68 % 0.0 in
12:04 8.1 °F 2.6 °F 1034.8 in NNE 6.9 mph 6.9 mph 68 % 0.0 in
12:09 8.1 °F 2.6 °F 1034.8 in ENE 9.3 mph 9.3 mph 68 % 0.0 in
12:10 8.1 °F 2.6 °F 1034.8 in ENE 10.3 mph 10.3 mph 68 % 0.0 in
12:12 8.2 °F 2.7 °F 1034.8 in NNE 9.3 mph 9.3 mph 68 % 0.0 in
12:16 8.3 °F 2.7 °F 1034.8 in NNE 10.0 mph 10.0 mph 68 % 0.0 in
12:21 8.3 °F 2.7 °F 1034.8 in NNE 9.3 mph 9.3 mph 68 % 0.0 in
12:26 8.3 °F 2.5 °F 1033.7 in NNE 14.8 mph 14.8 mph 67 % 0.0 in
12:30 8.4 °F 2.6 °F 1033.7 in NNE 9.3 mph 9.3 mph 67 % 0.0 in
12:31 8.4 °F 2.6 °F 1033.7 in NNE 9.3 mph 9.3 mph 67 % 0.0 in
12:36 8.4 °F 2.6 °F 1033.7 in ENE 9.3 mph 9.3 mph 67 % 0.0 in
12:41 8.3 °F 2.5 °F 1033.7 in ENE 11.1 mph 11.1 mph 67 % 0.0 in
12:44 8.4 °F 2.6 °F 1033.7 in ESE 5.6 mph 5.6 mph 67 % 0.0 in
12:49 8.5 °F 2.7 °F 1033.7 in North 9.3 mph 9.3 mph 67 % 0.0 in
12:53 8.5 °F 2.7 °F 1033.7 in NNE 9.3 mph 9.3 mph 67 % 0.0 in
12:55 8.5 °F 2.7 °F 1033.7 in WNW 7.4 mph 7.4 mph 67 % 0.0 in
12:59 8.8 °F 3.0 °F 1033.7 in NNE 3.9 mph 3.9 mph 67 % 0.0 in
13:00 8.8 °F 3.0 °F 1033.7 in NNW 5.6 mph 5.6 mph 67 % 0.0 in
13:05 9.0 °F 3.2 °F 1033.7 in NNE 9.3 mph 9.3 mph 67 % 0.0 in
13:07 8.9 °F 3.1 °F 1033.7 in ESE 9.7 mph 9.7 mph 67 % 0.0 in
13:12 9.1 °F 3.3 °F 1032.7 in NNW 9.3 mph 9.3 mph 67 % 0.0 in
13:17 9.3 °F 3.3 °F 1032.7 in North 6.9 mph 6.9 mph 66 % 0.0 in
13:21 9.2 °F 3.2 °F 1032.7 in North 11.1 mph 11.1 mph 66 % 0.0 in
13:23 9.3 °F 3.3 °F 1032.7 in NE 7.4 mph 7.4 mph 66 % 0.0 in
13:26 9.3 °F 3.3 °F 1033.7 in ENE 9.3 mph 9.3 mph 66 % 0.0 in
13:29 9.3 °F 3.3 °F 1033.7 in NNE 9.0 mph 9.0 mph 66 % 0.0 in
13:34 9.1 °F 2.9 °F 1033.7 in WNW 13.0 mph 13.0 mph 65 % 0.0 in
13:35 9.1 °F 2.9 °F 1033.7 in NW 10.3 mph 10.3 mph 65 % 0.0 in
13:37 9.1 °F 2.9 °F 1033.7 in NE 11.9 mph 11.9 mph 65 % 0.0 in
13:41 9.1 °F 2.9 °F 1033.7 in ESE 11.1 mph 11.1 mph 65 % 0.0 in
13:43 9.2 °F 2.9 °F 1033.7 in NNE 5.6 mph 5.6 mph 65 % 0.0 in
13:46 9.3 °F 3.1 °F 1033.7 in NE 7.4 mph 7.4 mph 65 % 0.0 in
13:51 9.5 °F 3.2 °F 1033.7 in NNE 7.9 mph 7.9 mph 65 % 0.0 in
13:52 9.4 °F 3.2 °F 1033.7 in ENE 9.7 mph 9.7 mph 65 % 0.0 in
13:54 9.3 °F 3.1 °F 1033.7 in NE 10.0 mph 10.0 mph 65 % 0.0 in
13:58 9.3 °F 3.1 °F 1033.7 in NNE 9.3 mph 9.3 mph 65 % 0.0 in
14:03 9.4 °F 3.2 °F 1033.7 in North 11.1 mph 11.1 mph 65 % 0.0 in
14:04 9.4 °F 3.2 °F 1033.7 in North 11.1 mph 11.1 mph 65 % 0.0 in
14:09 9.6 °F 3.3 °F 1033.7 in ENE 7.4 mph 7.4 mph 65 % 0.0 in
14:14 9.7 °F 3.4 °F 1032.7 in ESE 5.6 mph 5.6 mph 65 % 0.0 in
14:16 9.8 °F 3.5 °F 1032.7 in NNE 5.6 mph 5.6 mph 65 % 0.0 in
14:20 9.9 °F 3.6 °F 1032.7 in NE 5.6 mph 5.6 mph 65 % 0.0 in
14:24 9.8 °F 3.3 °F 1032.7 in ENE 7.6 mph 7.6 mph 64 % 0.0 in
14:26 9.9 °F 3.6 °F 1032.7 in NNE 7.6 mph 7.6 mph 65 % 0.0 in
14:31 10.0 °F 3.5 °F 1032.7 in ENE 9.7 mph 9.7 mph 64 % 0.0 in
14:33 10.0 °F 3.5 °F 1032.7 in NE 11.1 mph 11.1 mph 64 % 0.0 in
14:36 10.0 °F 3.5 °F 1032.7 in NNW 9.3 mph 9.3 mph 64 % 0.0 in
14:38 10.0 °F 3.5 °F 1032.7 in East 8.7 mph 8.7 mph 64 % 0.0 in
14:39 10.0 °F 3.5 °F 1032.7 in ENE 9.3 mph 9.3 mph 64 % 0.0 in
14:42 10.0 °F 3.5 °F 1032.7 in NNE 5.6 mph 5.6 mph 64 % 0.0 in
14:46 9.9 °F 3.4 °F 1032.7 in North 9.3 mph 9.3 mph 64 % 0.0 in
14:48 9.9 °F 3.4 °F 1032.7 in NNW 5.8 mph 5.8 mph 64 % 0.0 in
14:53 9.9 °F 3.4 °F 1032.7 in NE 9.3 mph 9.3 mph 64 % 0.0 in
14:54 9.9 °F 3.4 °F 1032.7 in NNE 9.3 mph 9.3 mph 64 % 0.0 in
14:56 9.9 °F 3.4 °F 1032.7 in ENE 7.4 mph 7.4 mph 64 % 0.0 in
15:01 9.9 °F 3.4 °F 1032.7 in WNW 9.3 mph 9.3 mph 64 % 0.0 in
15:06 9.9 °F 3.4 °F 1032.7 in ENE 5.8 mph 5.8 mph 64 % 0.0 in
15:09 9.9 °F 3.4 °F 1032.7 in WNW 7.4 mph 7.4 mph 64 % 0.0 in
15:14 9.9 °F 3.4 °F 1032.7 in North 5.0 mph 5.0 mph 64 % 0.0 in
15:17 9.9 °F 3.4 °F 1032.7 in NE 7.4 mph 7.4 mph 64 % 0.0 in
15:19 9.9 °F 3.4 °F 1032.7 in NW 3.7 mph 3.7 mph 64 % 0.0 in
15:23 10.0 °F 3.5 °F 1032.7 in ENE 5.6 mph 5.6 mph 64 % 0.0 in
15:28 10.1 °F 3.6 °F 1032.7 in ENE 7.4 mph 7.4 mph 64 % 0.0 in
15:33 10.1 °F 3.6 °F 1032.7 in NNE 3.7 mph 3.9 mph 64 % 0.0 in
15:34 10.1 °F 3.6 °F 1032.7 in East 6.1 mph 6.1 mph 64 % 0.0 in
15:39 10.2 °F 3.4 °F 1032.7 in NE 9.3 mph 9.3 mph 63 % 0.0 in
15:44 10.2 °F 3.4 °F 1032.1 in East 3.7 mph 3.7 mph 63 % 0.0 in
15:46 10.2 °F 3.4 °F 1032.1 in NNE 3.7 mph 3.9 mph 63 % 0.0 in
15:47 10.2 °F 3.4 °F 1032.1 in NNW 4.2 mph 4.2 mph 63 % 0.0 in
15:52 10.2 °F 3.4 °F 1032.1 in NNE 5.6 mph 5.6 mph 63 % 0.0 in
15:57 10.2 °F 3.4 °F 1032.1 in ENE 3.9 mph 3.9 mph 63 % 0.0 in
15:58 10.2 °F 3.4 °F 1032.1 in NE 5.6 mph 5.6 mph 63 % 0.0 in
15:59 10.2 °F 3.4 °F 1032.1 in NW 5.6 mph 5.6 mph 63 % 0.0 in
16:03 10.3 °F 3.8 °F 1032.1 in NNW 5.6 mph 5.6 mph 64 % 0.0 in
16:08 10.1 °F 3.4 °F 1032.1 in NE 10.3 mph 10.3 mph 63 % 0.0 in
16:09 10.1 °F 3.4 °F 1032.7 in ENE 11.1 mph 11.1 mph 63 % 0.0 in
16:14 10.1 °F 3.4 °F 1032.7 in ENE 5.0 mph 5.0 mph 63 % 0.0 in
16:15 10.1 °F 3.4 °F 1032.7 in NNE 7.4 mph 7.4 mph 63 % 0.0 in
16:20 10.0 °F 3.3 °F 1032.7 in NNE 5.6 mph 5.6 mph 63 % 0.0 in
16:21 10.0 °F 3.3 °F 1032.7 in NE 5.6 mph 5.6 mph 63 % 0.0 in
16:26 10.0 °F 3.3 °F 1032.1 in NE 3.9 mph 3.9 mph 63 % 0.0 in
16:31 9.9 °F 3.4 °F 1032.1 in NNE 3.7 mph 3.7 mph 64 % 0.0 in
16:32 9.9 °F 3.4 °F 1032.1 in NE 4.2 mph 4.2 mph 64 % 0.0 in
16:37 9.8 °F 3.3 °F 1032.1 in NNE 5.6 mph 5.6 mph 64 % 0.0 in
16:42 9.7 °F 3.2 °F 1032.7 in East 5.6 mph 5.6 mph 64 % 0.0 in
16:47 9.7 °F 3.2 °F 1032.7 in WNW 5.6 mph 5.6 mph 64 % 0.0 in
16:49 9.7 °F 3.2 °F 1032.7 in NNE 3.7 mph 3.7 mph 64 % 0.0 in
16:54 9.6 °F 3.1 °F 1033.7 in NNE 7.4 mph 7.4 mph 64 % 0.0 in
16:55 9.6 °F 3.1 °F 1033.7 in North 3.2 mph 8.0 mph 64 % 0.0 in
17:00 9.6 °F 3.1 °F 1033.7 in NNE 3.7 mph 3.7 mph 64 % 0.0 in
17:05 9.6 °F 3.1 °F 1033.7 in NW 3.7 mph 3.7 mph 64 % 0.0 in
17:06 9.5 °F 3.0 °F 1033.7 in WNW 3.7 mph 3.7 mph 64 % 0.0 in
17:11 9.5 °F 3.0 °F 1033.7 in WNW 3.7 mph 3.7 mph 64 % 0.0 in
17:13 9.4 °F 2.9 °F 1033.7 in NNW 3.7 mph   64 % 0.0 in
17:18 9.3 °F 2.8 °F 1033.7 in WNW 3.9 mph 3.9 mph 64 % 0.0 in
17:20 9.2 °F 2.7 °F 1033.7 in SW 3.7 mph 3.7 mph 64 % 0.0 in
17:24 9.2 °F 2.7 °F 1033.7 in WSW 4.7 mph   64 % 0.0 in
17:27 9.1 °F 2.7 °F 1033.7 in WSW 2.6 mph   64 % 0.0 in
17:29 9.1 °F 2.7 °F 1033.7 in WSW 2.6 mph 3.5 mph 64 % 0.0 in
17:34 9.0 °F 2.8 °F 1033.7 in WSW 3.7 mph 3.7 mph 65 % 0.0 in
17:35 8.9 °F 2.7 °F 1033.7 in West 3.7 mph 3.7 mph 65 % 0.0 in
17:40 8.8 °F 2.6 °F 1033.7 in WNW 7.4 mph 7.4 mph 65 % 0.0 in
17:41 8.8 °F 2.6 °F 1033.7 in ESE 5.6 mph   65 % 0.0 in
17:44 8.7 °F 2.5 °F 1033.7 in West 3.7 mph 3.7 mph 65 % 0.0 in
17:49 8.7 °F 2.5 °F 1033.7 in WNW 1.9 mph 1.9 mph 65 % 0.0 in
17:50 8.7 °F 2.5 °F 1033.7 in SW 1.9 mph 1.9 mph 65 % 0.0 in
17:55 8.5 °F 2.3 °F 1033.7 in West 3.7 mph 3.7 mph 65 % 0.0 in
18:00 8.5 °F 2.3 °F 1033.7 in West 3.7 mph 3.7 mph 65 % 0.0 in
18:01 8.4 °F 2.4 °F 1033.7 in SSW 1.9 mph 1.9 mph 66 % 0.0 in
18:06 8.3 °F 2.3 °F 1033.7 in SW 3.9 mph 3.9 mph 66 % 0.0 in
18:11 8.2 °F 2.2 °F 1033.7 in West 3.9 mph 3.9 mph 66 % 0.0 in
18:13 8.2 °F 2.2 °F 1033.7 in WSW 3.7 mph 3.9 mph 66 % 0.0 in
18:18 8.1 °F 2.1 °F 1033.7 in SW 3.7 mph 3.7 mph 66 % 0.0 in
18:19 8.1 °F 2.1 °F 1033.7 in SW 3.7 mph 3.7 mph 66 % 0.0 in
18:20 8.1 °F 2.1 °F 1033.7 in SW 3.5 mph   66 % 0.0 in
18:24 8.0 °F 2.1 °F 1033.7 in WSW 3.7 mph 3.7 mph 66 % 0.0 in
18:25 4.1 °F -0.1 °F 1033.7 in Calm   6.4 mph 74 % 0.0 in
18:29 8.0 °F 2.1 °F 1033.7 in WSW 3.7 mph 3.9 mph 66 % 0.0 in
18:34 8.0 °F 2.2 °F 1033.7 in Calm     67 % 0.0 in
18:35 4.3 °F 0.3 °F 1033.7 in NNE 3.2 mph 4.8 mph 75 % 0.0 in
18:36 7.9 °F 2.2 °F 1033.7 in Calm     67 % 0.0 in
18:41 8.0 °F 2.2 °F 1033.7 in West 1.9 mph 1.9 mph 67 % 0.0 in
18:42 8.0 °F 2.2 °F 1033.7 in West 1.9 mph 1.9 mph 67 % 0.0 in
18:45 4.2 °F 0.2 °F 1033.7 in Calm   1.6 mph 75 % 0.0 in
18:47 7.9 °F 2.2 °F 1033.7 in Calm     67 % 0.0 in
18:48 7.9 °F 2.2 °F 1033.7 in Calm     67 % 0.0 in
18:53 7.8 °F 2.1 °F 1033.7 in Calm     67 % 0.0 in
18:55 4.1 °F 0.1 °F 1033.7 in Calm   1.6 mph 75 % 0.0 in
18:58 7.7 °F 1.9 °F 1033.7 in Calm     67 % 0.0 in
19:00 7.7 °F 1.9 °F 1033.7 in Calm     67 % 0.0 in
19:05 7.6 °F 2.1 °F 1033.7 in Calm     68 % 0.0 in
19:06 7.6 °F 2.1 °F 1033.7 in Calm     68 % 0.0 in
19:07 7.6 °F 2.1 °F 1033.7 in NW 1.9 mph   68 % 0.0 in
19:11 7.5 °F 1.9 °F 1033.7 in WNW 3.9 mph   68 % 0.0 in
19:14 7.5 °F 1.9 °F 1033.7 in WNW 1.9 mph 1.9 mph 68 % 0.0 in
19:15 3.8 °F -0.2 °F 1033.7 in Calm   3.2 mph 75 % 0.0 in
19:16 7.5 °F 1.9 °F 1033.7 in West 3.7 mph 3.7 mph 68 % 0.0 in
19:21 7.4 °F 1.9 °F 1033.7 in SW 2.6 mph   68 % 0.0 in
19:23 7.3 °F 1.8 °F 1033.7 in SW 1.9 mph   68 % 0.0 in
19:24 7.2 °F 1.7 °F 1033.7 in ENE 1.4 mph   68 % 0.0 in
19:25 3.7 °F -0.5 °F 1033.7 in West 1.6 mph 3.2 mph 74 % 0.0 in
19:28 7.1 °F 1.6 °F 1033.7 in West 2.6 mph 2.6 mph 68 % 0.0 in
19:30 7.1 °F 1.6 °F 1033.7 in WSW 1.6 mph 3.2 mph 68 % 0.0 in
19:35 6.9 °F 1.4 °F 1033.7 in SW 3.7 mph 3.7 mph 68 % 0.0 in
19:36 6.9 °F 1.4 °F 1033.7 in WSW 3.7 mph 3.7 mph 68 % 0.0 in
19:41 7.0 °F 1.5 °F 1033.7 in Calm     68 % 0.0 in
19:42 6.9 °F 1.4 °F 1033.7 in NW 1.9 mph 1.9 mph 68 % 0.0 in
19:44 6.9 °F 1.4 °F 1033.7 in WNW 3.7 mph 3.7 mph 68 % 0.0 in
19:45 3.4 °F -0.6 °F 1033.7 in North 1.6 mph 3.2 mph 75 % 0.0 in
19:49 6.9 °F 1.4 °F 1033.7 in Calm     68 % 0.0 in
19:50 6.9 °F 1.4 °F 1033.7 in Calm     68 % 0.0 in
19:55 6.8 °F 1.5 °F 1033.7 in Calm     69 % 0.0 in
19:58 6.8 °F 1.5 °F 1033.7 in WNW 2.6 mph 2.6 mph 69 % 0.0 in
20:03 6.8 °F 1.5 °F 1033.7 in Calm     69 % 0.0 in
20:05 3.2 °F -0.6 °F 1032.7 in NNE 1.6 mph 8.0 mph 76 % 0.0 in
20:06 6.7 °F 1.4 °F 1033.7 in Calm     69 % 0.0 in
20:09 6.7 °F 1.4 °F 1033.7 in Calm     69 % 0.0 in
20:14 6.6 °F 1.3 °F 1033.7 in Calm     69 % 0.0 in
20:15 6.6 °F 1.3 °F 1033.7 in Calm     69 % 0.0 in
20:17 6.6 °F 1.3 °F 1033.7 in Calm     69 % 0.0 in
20:20 6.6 °F 1.3 °F 1033.7 in WNW 2.3 mph 2.3 mph 69 % 0.0 in
20:25 6.2 °F 0.9 °F 1033.7 in WSW 3.7 mph 3.7 mph 69 % 0.0 in
20:26 6.2 °F 0.9 °F 1033.7 in WSW 3.7 mph 3.7 mph 69 % 0.0 in
20:31 6.1 °F 0.8 °F 1033.7 in WSW 3.7 mph 3.7 mph 69 % 0.0 in
20:35 3.0 °F -0.7 °F 1032.7 in NNE 1.6 mph 3.2 mph 77 % 0.0 in
20:36 6.2 °F 0.9 °F 1033.7 in Calm     69 % 0.0 in
20:37 6.2 °F 0.9 °F 1033.7 in Calm     69 % 0.0 in
20:40 6.2 °F 1.1 °F 1033.7 in NW 1.9 mph   70 % 0.0 in
20:45 6.3 °F 1.2 °F 1033.7 in NW 1.9 mph   70 % 0.0 in
20:46 6.3 °F 1.2 °F 1033.7 in NW 1.9 mph   70 % 0.0 in
20:51 6.4 °F 1.3 °F 1033.7 in Calm     70 % 0.0 in
20:55 3.0 °F -0.7 °F 1032.7 in NNE 1.6 mph 3.2 mph 77 % 0.0 in
20:56 6.3 °F 1.2 °F 1033.7 in Calm     70 % 0.0 in
20:58 6.3 °F 1.2 °F 1033.7 in Calm     70 % 0.0 in
21:01 6.3 °F 1.2 °F 1033.7 in Calm     70 % 0.0 in
21:03 6.3 °F 1.2 °F 1033.7 in Calm     70 % 0.0 in
21:05 2.8 °F -0.8 °F 1032.7 in Calm   1.6 mph 77 % 0.0 in
21:08 6.3 °F 1.2 °F 1033.7 in Calm     70 % 0.0 in
21:11 6.3 °F 1.2 °F 1033.7 in WNW 2.6 mph   70 % 0.0 in
21:15 6.2 °F 1.1 °F 1033.7 in Calm     70 % 0.0 in
21:16 6.2 °F 1.1 °F 1033.7 in Calm     70 % 0.0 in
21:21 6.2 °F 1.3 °F 1033.7 in Calm     71 % 0.0 in
21:25 2.8 °F -0.7 °F 1032.7 in North 1.6 mph 3.2 mph 78 % 0.0 in
21:26 6.2 °F 1.3 °F 1033.7 in NE 3.2 mph 3.2 mph 71 % 0.0 in
21:27 6.2 °F 1.3 °F 1033.7 in NE 3.2 mph 3.2 mph 71 % 0.0 in
21:31 6.0 °F 1.1 °F 1033.7 in NE 1.9 mph   71 % 0.0 in
21:32 6.0 °F 1.1 °F 1033.7 in Calm     71 % 0.0 in
21:35 2.7 °F -0.8 °F 1032.7 in North 1.6 mph 4.8 mph 78 % 0.0 in
21:37 5.9 °F 1.1 °F 1033.7 in WNW 1.9 mph   71 % 0.0 in
21:38 5.9 °F 1.1 °F 1033.7 in WNW 1.9 mph   71 % 0.0 in
21:43 5.8 °F 0.9 °F 1033.7 in Calm     71 % 0.0 in
21:44 5.7 °F 0.8 °F 1033.7 in Calm     71 % 0.0 in
21:45 2.6 °F -0.8 °F 1032.7 in NW 3.2 mph 3.2 mph 78 % 0.0 in
21:49 5.6 °F 0.8 °F 1033.7 in WNW 2.3 mph 2.3 mph 71 % 0.0 in
21:52 5.6 °F 0.8 °F 1033.7 in Calm     71 % 0.0 in
21:55 5.5 °F 0.7 °F 1033.7 in Calm     71 % 0.0 in
22:00 5.4 °F 0.6 °F 1033.7 in West 2.6 mph   71 % 0.0 in
22:01 5.4 °F 0.6 °F 1033.7 in West 2.6 mph   71 % 0.0 in
22:05 5.2 °F 0.4 °F 1033.7 in SW 1.9 mph 2.3 mph 71 % 0.0 in
22:06 5.2 °F 0.4 °F 1033.7 in West 3.7 mph 3.7 mph 71 % 0.0 in
22:11 5.2 °F 0.4 °F 1033.7 in West 2.3 mph 2.3 mph 71 % 0.0 in
22:12 5.2 °F 0.4 °F 1033.7 in West 2.6 mph 2.6 mph 71 % 0.0 in
22:15 2.4 °F -1.1 °F 1032.7 in WNW 1.6 mph 3.2 mph 78 % 0.0 in
22:17 5.0 °F 0.2 °F 1033.7 in WSW 3.7 mph 3.7 mph 71 % 0.0 in
22:20 5.1 °F 0.3 °F 1033.7 in WSW 2.6 mph 2.6 mph 71 % 0.0 in
22:26 5.1 °F 0.3 °F 1033.7 in WSW 3.7 mph 3.7 mph 71 % 0.0 in
22:29 5.0 °F 0.4 °F 1033.7 in SW 2.6 mph 2.6 mph 72 % 0.0 in
22:34 5.0 °F 0.4 °F 1033.7 in WSW 3.7 mph 3.7 mph 72 % 0.0 in
22:35 2.3 °F -1.2 °F 1032.1 in Calm   3.2 mph 78 % 0.0 in
22:38 5.0 °F 0.4 °F 1033.7 in West 3.7 mph 3.7 mph 72 % 0.0 in
22:43 5.1 °F 0.4 °F 1033.7 in West 3.7 mph 3.7 mph 72 % 0.0 in
22:44 5.1 °F 0.4 °F 1033.7 in West 2.6 mph 2.6 mph 72 % 0.0 in
22:45 2.4 °F -0.9 °F 1032.1 in NNW 1.6 mph 3.2 mph 79 % 0.0 in
22:49 5.1 °F 0.4 °F 1033.7 in SW 3.7 mph 3.7 mph 72 % 0.0 in
22:50 5.0 °F 0.4 °F 1033.7 in SW 3.7 mph 3.7 mph 72 % 0.0 in
22:55 5.0 °F 0.4 °F 1033.7 in WSW 3.7 mph 3.7 mph 72 % 0.0 in
23:00 4.8 °F 0.4 °F 1033.7 in SW 3.7 mph 3.7 mph 73 % 0.0 in
23:01 4.8 °F 0.4 °F 1033.7 in SW 3.7 mph 3.7 mph 73 % 0.0 in
23:05 2.4 °F -0.9 °F 1032.1 in North 1.6 mph 4.8 mph 79 % 0.0 in
23:06 4.7 °F 0.3 °F 1033.7 in WSW 2.3 mph 2.3 mph 73 % 0.0 in
23:07 4.7 °F 0.3 °F 1033.7 in WSW 2.6 mph 2.6 mph 73 % 0.0 in
23:12 4.7 °F 0.3 °F 1033.7 in West 2.6 mph   73 % 0.0 in
23:14 4.7 °F 0.3 °F 1033.7 in WSW 3.7 mph 3.7 mph 73 % 0.0 in
23:15 2.3 °F -0.9 °F 1032.1 in NNW 1.6 mph 3.2 mph 79 % 0.0 in
23:18 4.6 °F 0.2 °F 1033.7 in WSW 3.7 mph 3.7 mph 73 % 0.0 in
23:22 4.7 °F 0.3 °F 1033.7 in WSW 1.9 mph 1.9 mph 73 % 0.0 in
23:23 4.7 °F 0.3 °F 1033.7 in WSW 1.9 mph 1.9 mph 73 % 0.0 in
23:25 2.3 °F -0.9 °F 1030.7 in NNW 3.2 mph 4.8 mph 79 % 0.0 in
23:28 4.6 °F 0.3 °F 1033.7 in Calm     74 % 0.0 in
23:33 4.6 °F 0.3 °F 1033.7 in Calm     74 % 0.0 in
23:35 2.3 °F -0.9 °F 1032.1 in NNW 3.2 mph 4.8 mph 79 % 0.0 in
23:38 4.6 °F 0.3 °F 1033.7 in Calm     74 % 0.0 in
23:40 4.6 °F 0.3 °F 1033.7 in Calm     74 % 0.0 in
23:45 4.6 °F 0.3 °F 1033.7 in Calm     74 % 0.0 in
23:48 4.6 °F 0.3 °F 1033.7 in NNE 2.6 mph 2.6 mph 74 % 0.0 in
23:53 4.6 °F 0.3 °F 1033.7 in Calm     74 % 0.0 in
23:55 2.2 °F -1.1 °F 1032.1 in ENE 3.2 mph 6.4 mph 79 % 0.0 in
23:58 4.6 °F 0.3 °F 1033.7 in Calm     74 % 0.0 in
Meteo Sesrovires
Elogis d' Weather Underground - 4 mb

Guio original per  Jim McMurry - jmcmurry@mwt.net Adaptat per a la plantilla per  Wim van der Kuil - Leuven-Template.eu

Trobareu la nostra informacio del temps tambe a:

Weather Underground

AWEKAS